Calanus - UK — GBJK — position and weather

sailwx.info

Track history (hours):
 
Tides and Currents Weather Stations Pressure Air Temp Water Temp Dewpoint Dewpoint Depression Visibility Wind Speed Wind Dir Waves Ship Positions

Oceanographic research ship Calanus - UK (UK)

Detailed information on ship capabilities available from University of Delaware's Ocean Information Center.

Last reported at 2019-Oct-04 13:59 UTC. Time now 2019-Oct-17 15:13 UTC.
Position N 56°28' W 005°27'.
Warning: this ship's position is 13 days out of date.

Length 19 m.

Type: Dredging. MMSI: 235050871.

Date/timePositionNaut miles runAvg speedWind from/ knotsBaromVisibWave heightAir tempDewpointWater temp
2019-Oct-04 13:59N 56°28' W 005°27'0 0.1
2019-Oct-04 08:21N 56°27' W 005°28'1 0.0
2019-Oct-03 14:06N 56°28' W 005°26'1 7.2
2019-Oct-03 13:59N 56°28' W 005°28'3 5.8
2019-Oct-03 13:28N 56°31' W 005°29'0 0.2
2019-Oct-03 13:00N 56°31' W 005°29'0 0.4
2019-Oct-03 12:30N 56°31' W 005°29'0 0.3
2019-Oct-03 11:59N 56°30' W 005°29'3 5.7
2019-Oct-03 11:24N 56°31' W 005°23'1 0.8
2019-Oct-03 10:35N 56°31' W 005°23'1 3.3
2019-Oct-03 10:22N 56°31' W 005°23'2 4.9
2019-Oct-03 10:00N 56°31' W 005°27'3 3.3
2019-Oct-03 09:01N 56°29' W 005°30'1 1.2
2019-Oct-03 08:23N 56°28' W 005°29'2 0.1
2019-Oct-02 18:02N 56°27' W 005°26'1 0.1
2019-Oct-02 09:17N 56°27' W 005°24'1 0.0
2019-Oct-01 15:15N 56°27' W 005°25'  
2019-Sep-25 14:16N 56°28' W 005°28'2 6.4
2019-Sep-25 13:58N 56°30' W 005°28'3 1.0
2019-Sep-25 11:10N 56°32' W 005°24'2 2.0
2019-Sep-25 10:04N 56°31' W 005°27'0 5.2
2019-Sep-25 09:58N 56°30' W 005°28'0 0.8
2019-Sep-25 09:30N 56°30' W 005°28'2 1.7
2019-Sep-25 08:16N 56°28' W 005°28'1 0.1
2019-Sep-24 15:56N 56°27' W 005°25'  
Track history (hours):
 
Tides and Currents Weather Stations Pressure Air Temp Water Temp Dewpoint Dewpoint Depression Visibility Wind Speed Wind Dir Waves Ship Positions

Oceanographic research ship Calanus - UK (UK)

Detailed information on ship capabilities available from University of Delaware's Ocean Information Center.

Last reported at 2019-Oct-04 13:59 UTC. Time now 2019-Oct-17 15:13 UTC.
Position N 56°28' W 005°27'.
Warning: this ship's position is 13 days out of date.

Length 19 m.

Type: Dredging. MMSI: 235050871.

Date/timePositionNaut miles runAvg speedWind from/ knotsBaromVisibWave heightAir tempDewpointWater temp
2019-Oct-04 13:59N 56°28' W 005°27'0 0.1
2019-Oct-04 08:21N 56°27' W 005°28'1 0.0
2019-Oct-03 14:06N 56°28' W 005°26'1 7.2
2019-Oct-03 13:59N 56°28' W 005°28'3 5.8
2019-Oct-03 13:28N 56°31' W 005°29'0 0.2
2019-Oct-03 13:00N 56°31' W 005°29'0 0.4
2019-Oct-03 12:30N 56°31' W 005°29'0 0.3
2019-Oct-03 11:59N 56°30' W 005°29'3 5.7
2019-Oct-03 11:24N 56°31' W 005°23'1 0.8
2019-Oct-03 10:35N 56°31' W 005°23'1 3.3
2019-Oct-03 10:22N 56°31' W 005°23'2 4.9
2019-Oct-03 10:00N 56°31' W 005°27'3 3.3
2019-Oct-03 09:01N 56°29' W 005°30'1 1.2
2019-Oct-03 08:23N 56°28' W 005°29'2 0.1
2019-Oct-02 18:02N 56°27' W 005°26'1 0.1
2019-Oct-02 09:17N 56°27' W 005°24'1 0.0
2019-Oct-01 15:15N 56°27' W 005°25'  
2019-Sep-25 14:16N 56°28' W 005°28'2 6.4
2019-Sep-25 13:58N 56°30' W 005°28'3 1.0
2019-Sep-25 11:10N 56°32' W 005°24'2 2.0
2019-Sep-25 10:04N 56°31' W 005°27'0 5.2
2019-Sep-25 09:58N 56°30' W 005°28'0 0.8
2019-Sep-25 09:30N 56°30' W 005°28'2 1.7
2019-Sep-25 08:16N 56°28' W 005°28'1 0.1
2019-Sep-24 15:56N 56°27' W 005°25'  

Dump ship's entire track history